Time;durP1;ratioP1;P1;durP2;ratioP2;P2;SDS_P1;SDS_P2;PMS_P1;PMS_P2;Temp;Humidity;BMP_temperature;BMP_pressure;BME280_temperature;BME280_humidity;BME280_pressure;Samples;Min_cycle;Max_cycle;Signal;HPM_P1;HPM_P2
2022/08/13 00:00:34;;;;;;;9.48;7.20;;;;;;;23.45;56.22;101754.91;5010149;28;20091;-54
2022/08/13 00:03:01;;;;;;;10.13;7.47;;;;;;;23.44;56.76;101755.81;4994423;28;20041;-53
2022/08/13 00:05:26;;;;;;;11.77;7.75;;;;;;;23.39;56.45;101762.19;5006377;28;20703;-54
2022/08/13 00:07:53;;;;;;;11.90;8.07;;;;;;;23.27;56.73;101757.19;4991215;28;20375;-52
2022/08/13 00:10:31;;;;;;;11.50;8.00;;;;;;;23.25;56.81;101759.00;5007149;28;20147;-50
2022/08/13 00:13:03;;;;;;;10.95;7.35;;;;;;;23.28;56.59;101753.59;4984959;28;20719;-49
2022/08/13 00:15:47;;;;;;;10.40;7.68;;;;;;;23.25;56.83;101748.34;5013306;28;20222;-52
2022/08/13 00:18:16;;;;;;;;;;;;;;;23.13;57.66;101749.53;5005493;28;20065;-51
2022/08/13 00:20:48;;;;;;;11.00;7.97;;;;;;;23.03;57.69;101748.00;4987075;28;19920;-51
2022/08/13 00:23:14;;;;;;;17.20;8.65;;;;;;;22.90;58.24;101757.19;5010861;28;20495;-55
2022/08/13 00:25:45;;;;;;;10.65;8.52;;;;;;;22.79;58.50;101744.16;4999827;28;20507;-52
2022/08/13 00:28:17;;;;;;;10.48;8.20;;;;;;;22.70;58.58;101740.78;4990374;28;20055;-50
2022/08/13 00:30:43;;;;;;;12.52;8.85;;;;;;;22.66;58.47;101743.53;4997232;28;20036;-52
2022/08/13 00:33:11;;;;;;;9.77;7.78;;;;;;;22.66;58.26;101747.97;5002094;28;20032;-49
2022/08/13 00:35:37;;;;;;;11.55;8.77;;;;;;;22.60;58.26;101751.66;4992993;28;20045;-52
2022/08/13 00:38:05;;;;;;;11.27;8.65;;;;;;;22.70;57.30;101746.97;5005009;28;20056;-51
2022/08/13 00:40:32;;;;;;;11.98;8.15;;;;;;;22.64;58.00;101740.03;4996279;28;21088;-52
2022/08/13 00:43:02;;;;;;;13.65;8.73;;;;;;;22.55;58.09;101748.22;4998741;28;20071;-52
2022/08/13 00:45:29;;;;;;;12.20;8.63;;;;;;;22.55;58.10;101744.69;4985780;28;20045;-52
2022/08/13 00:50:51;;;;;;;11.45;9.02;;;;;;;22.41;58.25;101747.63;5010101;28;20048;-54
2022/08/13 00:53:19;;;;;;;11.13;8.98;;;;;;;22.44;57.70;101755.56;4987059;28;20044;-50
2022/08/13 00:55:48;;;;;;;14.35;9.13;;;;;;;22.44;57.62;101749.38;4995199;28;20037;-49
2022/08/13 00:58:16;;;;;;;15.90;8.73;;;;;;;22.26;58.52;101745.31;5007105;28;20040;-52
2022/08/13 01:00:43;;;;;;;12.48;9.15;;;;;;;22.12;58.51;101744.72;4995755;28;20355;-53
2022/08/13 01:03:09;;;;;;;10.85;8.85;;;;;;;22.21;58.42;101748.06;5004646;28;20033;-51
2022/08/13 01:05:39;;;;;;;11.10;8.90;;;;;;;22.25;58.12;101741.78;5004972;28;20033;-51
2022/08/13 01:08:05;;;;;;;12.52;9.48;;;;;;;22.14;58.81;101749.09;4969028;28;20432;-49
2022/08/13 01:10:30;;;;;;;13.40;9.45;;;;;;;22.12;58.88;101745.59;5000303;28;21669;-52
2022/08/13 01:12:57;;;;;;;15.70;9.85;;;;;;;22.13;59.01;101746.47;5015109;28;20029;-49
2022/08/13 01:15:23;;;;;;;16.23;10.70;;;;;;;21.98;59.48;101741.47;4992407;28;20375;-50
2022/08/13 01:17:53;;;;;;;13.85;10.60;;;;;;;21.97;59.44;101748.53;5000674;28;20140;-54
2022/08/13 01:20:20;;;;;;;14.85;10.75;;;;;;;21.89;59.68;101741.63;5001604;28;20124;-50
2022/08/13 01:22:49;;;;;;;13.50;10.77;;;;;;;21.86;59.30;101746.09;4993295;28;20487;-54
2022/08/13 01:25:16;;;;;;;13.38;11.02;;;;;;;21.83;59.60;101747.94;4990030;28;20507;-54
2022/08/13 01:27:43;;;;;;;17.25;10.93;;;;;;;21.79;59.86;101747.09;4999255;28;20076;-53
2022/08/13 01:30:16;;;;;;;14.52;11.32;;;;;;;21.74;60.01;101750.75;5005991;28;20048;-50
2022/08/13 01:32:41;;;;;;;16.02;10.93;;;;;;;21.60;60.19;101756.28;4997240;28;20495;-51
2022/08/13 01:35:08;;;;;;;13.82;10.30;;;;;;;21.75;59.76;101748.06;5000805;28;20051;-48
2022/08/13 01:37:38;;;;;;;15.45;10.73;;;;;;;21.70;59.80;101754.38;4978558;28;20064;-50
2022/08/13 01:40:06;;;;;;;14.80;11.07;;;;;;;21.66;59.96;101753.53;4992534;28;20080;-49
2022/08/13 01:42:42;;;;;;;12.70;10.55;;;;;;;21.71;59.74;101754.31;5002827;28;20607;-52
2022/08/13 01:45:09;;;;;;;13.27;10.25;;;;;;;21.67;59.93;101754.41;5006227;28;20120;-50
2022/08/13 01:50:29;;;;;;;15.27;11.15;;;;;;;21.61;60.08;101755.41;5005319;28;20269;-51
2022/08/13 01:53:05;;;;;;;13.52;10.75;;;;;;;21.64;60.17;101750.06;5000700;28;20115;-53
2022/08/13 01:55:40;;;;;;;15.20;10.10;;;;;;;21.63;60.04;101750.06;5008756;28;20037;-51
2022/08/13 01:58:12;;;;;;;14.85;9.80;;;;;;;21.56;59.93;101741.34;4989521;28;20037;-52
2022/08/13 02:00:43;;;;;;;13.02;10.07;;;;;;;21.49;59.88;101746.78;5007898;28;20500;-51
2022/08/13 02:03:09;;;;;;;14.35;10.43;;;;;;;21.42;59.81;101744.25;4993169;28;20044;-48
2022/08/13 02:05:47;;;;;;;15.00;10.88;;;;;;;21.34;60.40;101748.81;4998928;28;20041;-52
2022/08/13 02:08:15;;;;;;;12.88;10.07;;;;;;;21.35;59.98;101752.31;4998468;28;21494;-48
2022/08/13 02:10:43;;;;;;;12.75;10.18;;;;;;;21.32;60.38;101747.09;5000033;28;20295;-54
2022/08/13 02:13:13;;;;;;;13.80;9.35;;;;;;;21.36;60.06;101744.34;5002109;28;20041;-50
2022/08/13 02:15:40;;;;;;;13.02;9.70;;;;;;;21.37;59.77;101743.44;4995399;28;20052;-49
2022/08/13 02:18:07;;;;;;;15.27;10.57;;;;;;;21.29;59.95;101755.97;4996100;28;20422;-52
2022/08/13 02:20:34;;;;;;;15.32;9.15;;;;;;;21.37;59.04;101742.56;5005261;28;20033;-53
2022/08/13 02:23:00;;;;;;;13.18;9.52;;;;;;;21.33;58.74;101752.38;4996249;28;20535;-52
2022/08/13 02:25:28;;;;;;;11.32;9.45;;;;;;;21.29;58.33;101748.00;5001065;28;20162;-53
2022/08/13 02:27:55;;;;;;;16.85;9.57;;;;;;;21.27;57.88;101749.81;4992871;28;20334;-54
2022/08/13 02:30:25;;;;;;;13.88;9.45;;;;;;;21.19;58.09;101749.06;4986750;28;20037;-53
2022/08/13 02:32:51;;;;;;;10.75;9.10;;;;;;;21.24;57.80;101757.81;4985128;28;20447;-52
2022/08/13 02:35:18;;;;;;;11.95;8.77;;;;;;;21.34;57.62;101764.75;5009574;28;20068;-51
2022/08/13 02:37:47;;;;;;;11.57;9.25;;;;;;;21.22;57.15;101753.47;4981497;28;20122;-52
2022/08/13 02:43:12;;;;;;;12.32;8.55;;;;;;;21.23;56.94;101756.06;5005206;28;20109;-53
2022/08/13 02:45:40;;;;;;;11.80;9.32;;;;;;;21.16;56.86;101756.22;4982704;28;20520;-53
2022/08/13 02:48:17;;;;;;;13.90;9.50;;;;;;;21.15;56.83;101747.38;5006415;28;20136;-51
2022/08/13 02:50:43;;;;;;;10.90;9.23;;;;;;;21.14;56.56;101753.53;5004822;28;20037;-52
2022/08/13 02:53:09;;;;;;;11.48;8.82;;;;;;;21.14;56.38;101756.19;5004706;28;20335;-49
2022/08/13 02:55:38;;;;;;;11.20;8.20;;;;;;;21.12;56.32;101752.69;5009277;28;20033;-53
2022/08/13 02:58:04;;;;;;;10.77;8.68;;;;;;;21.12;56.15;101755.31;4995871;28;20443;-51
2022/08/13 03:00:30;;;;;;;12.02;9.27;;;;;;;21.06;56.07;101750.13;5007976;28;20062;-51
2022/08/13 03:02:59;;;;;;;11.63;9.07;;;;;;;21.01;56.03;101751.97;4999299;28;20037;-54
2022/08/13 03:05:25;;;;;;;13.02;8.52;;;;;;;21.02;56.14;101751.09;5003257;28;20064;-53
2022/08/13 03:07:53;;;;;;;11.38;8.82;;;;;;;20.94;55.87;101750.31;4985796;28;20049;-51
2022/08/13 03:10:20;;;;;;;11.15;8.70;;;;;;;20.89;56.00;101747.75;5003426;28;20396;-49
2022/08/13 03:12:49;;;;;;;11.18;8.57;;;;;;;20.91;56.02;101753.03;4985798;28;20033;-49
2022/08/13 03:15:18;;;;;;;10.35;8.23;;;;;;;20.94;55.70;101752.97;4992551;28;20036;-48
2022/08/13 03:17:43;;;;;;;11.35;8.10;;;;;;;20.93;55.43;101753.88;4997491;28;21127;-48
2022/08/13 03:20:15;;;;;;;11.32;8.65;;;;;;;20.86;55.86;101752.22;5001856;28;20562;-49
2022/08/13 03:22:51;;;;;;;13.38;9.18;;;;;;;20.87;55.29;101749.53;4988997;28;20144;-50
2022/08/13 03:25:17;;;;;;;12.35;7.90;;;;;;;20.87;55.46;101751.31;5004996;28;20415;-52
2022/08/13 03:27:49;;;;;;;11.55;8.30;;;;;;;20.82;55.37;101746.09;4954508;28;20045;-50
2022/08/13 03:30:16;;;;;;;12.65;8.30;;;;;;;20.83;55.10;101750.50;4998060;28;20036;-51
2022/08/13 03:32:44;;;;;;;11.57;8.27;;;;;;;20.82;54.98;101747.84;4999094;28;20686;-52
2022/08/13 03:35:22;;;;;;;10.75;7.70;;;;;;;20.85;54.80;101754.00;4995112;28;20591;-53
2022/08/13 03:37:55;;;;;;;9.95;8.05;;;;;;;20.81;54.88;101749.63;4997955;28;20140;-51
2022/08/13 03:41:00;;;;;;;14.07;7.80;;;;;;;20.78;55.14;101749.69;5003014;28;20850;-52
2022/08/13 03:43:17;;;;;;;11.20;8.07;;;;;;;20.76;54.88;101751.47;5007154;28;20049;-51
2022/08/13 03:45:44;;;;;;;12.65;8.35;;;;;;;20.70;55.06;101748.91;4993568;28;20071;-52
2022/08/13 03:48:14;;;;;;;11.40;7.82;;;;;;;20.66;55.08;101741.91;4989237;28;20041;-53
2022/08/13 03:50:44;;;;;;;11.68;7.75;;;;;;;20.72;54.83;101743.59;4979119;28;20579;-51
2022/08/13 03:53:10;;;;;;;13.70;8.15;;;;;;;20.60;55.23;101747.31;5004255;28;20122;-52
2022/08/13 03:55:39;;;;;;;9.98;7.80;;;;;;;20.60;55.33;101745.53;5007300;28;20116;-50
2022/08/13 03:58:06;;;;;;;10.15;8.35;;;;;;;20.56;55.39;101746.44;4996802;28;20036;-49
2022/08/13 04:00:34;;;;;;;12.15;7.93;;;;;;;20.58;55.22;101747.31;5003173;28;20049;-52
2022/08/13 04:03:00;;;;;;;12.93;8.25;;;;;;;20.62;55.08;101749.00;4998765;28;20041;-52
2022/08/13 04:05:26;;;;;;;10.48;8.25;;;;;;;20.63;54.98;101749.91;5005999;28;20107;-49
2022/08/13 04:07:52;;;;;;;11.10;7.63;;;;;;;20.64;54.82;101743.69;4993689;28;20045;-49
2022/08/13 04:10:26;;;;;;;12.20;7.90;;;;;;;20.65;55.34;101746.34;4989111;28;20065;-48
2022/08/13 04:12:52;;;;;;;9.93;7.75;;;;;;;20.65;54.56;101743.69;5003640;28;20041;-49
2022/08/13 04:15:18;;;;;;;11.82;7.47;;;;;;;20.60;54.74;101740.22;4982570;28;20082;-51
2022/08/13 04:17:46;;;;;;;12.45;7.70;;;;;;;20.62;54.55;101740.19;4994745;28;20045;-53
2022/08/13 04:20:14;;;;;;;11.05;7.50;;;;;;;20.62;54.25;101748.13;4999639;28;20244;-50
2022/08/13 04:22:39;;;;;;;12.75;7.30;;;;;;;20.64;54.34;101738.41;5003469;28;20052;-53
2022/08/13 04:25:11;;;;;;;10.88;7.57;;;;;;;20.67;54.48;101745.44;4999974;28;20298;-53
2022/08/13 04:27:36;;;;;;;9.60;7.65;;;;;;;20.67;54.65;101740.16;4993543;28;20396;-53
2022/08/13 04:30:07;;;;;;;12.43;8.00;;;;;;;20.55;54.79;101743.84;5003409;28;20037;-50
2022/08/13 04:32:41;;;;;;;13.63;8.07;;;;;;;20.43;55.60;101746.66;5005584;28;20036;-52
2022/08/13 04:35:09;;;;;;;9.60;7.63;;;;;;;20.55;54.58;101738.56;5003363;28;20459;-53
2022/08/13 04:37:37;;;;;;;10.10;7.47;;;;;;;20.55;54.83;101744.69;4998753;28;20160;-49
2022/08/13 04:40:04;;;;;;;9.00;7.10;;;;;;;20.67;54.63;101747.16;5005720;28;20127;-50
2022/08/13 04:43:06;;;;;;;12.80;8.10;;;;;;;20.69;54.87;101746.28;4976593;28;21140;-51
2022/08/13 04:45:33;;;;;;;10.43;7.97;;;;;;;20.55;55.29;101751.78;4944946;28;20061;-52
2022/08/13 04:48:03;;;;;;;12.05;7.65;;;;;;;20.60;55.09;101747.31;4981835;28;20040;-52
2022/08/13 04:50:32;;;;;;;9.98;7.28;;;;;;;20.68;54.88;101748.03;4982737;28;20037;-51
2022/08/13 04:52:59;;;;;;;11.57;7.20;;;;;;;20.74;53.95;101741.81;4996721;28;20120;-50
2022/08/13 04:55:25;;;;;;;9.30;7.18;;;;;;;20.79;54.37;101742.63;4991914;28;20523;-48
2022/08/13 04:57:57;;;;;;;8.73;6.72;;;;;;;20.84;54.46;101740.78;4975654;28;20041;-51
2022/08/13 05:00:24;;;;;;;9.23;7.40;;;;;;;20.86;54.06;101749.59;4981563;28;20041;-50
2022/08/13 05:02:52;;;;;;;9.00;7.22;;;;;;;20.90;54.53;101743.31;4982993;28;20106;-48
2022/08/13 05:05:21;;;;;;;8.70;6.85;;;;;;;20.94;54.29;101747.66;5001396;28;20080;-50
2022/08/13 05:07:50;;;;;;;8.57;7.35;;;;;;;20.99;53.67;101746.69;4991337;28;20044;-49
2022/08/13 05:10:15;;;;;;;10.65;6.97;;;;;;;21.04;54.33;101747.50;5004735;28;20106;-48
2022/08/13 05:12:42;;;;;;;11.20;7.55;;;;;;;21.02;54.71;101740.47;5006838;28;20549;-50
2022/08/13 05:15:08;;;;;;;9.55;7.47;;;;;;;21.06;54.41;101748.34;5003355;28;20670;-52
2022/08/13 05:17:36;;;;;;;9.55;6.47;;;;;;;21.20;54.08;101752.59;5000702;28;20037;-52
2022/08/13 05:20:02;;;;;;;23.42;6.65;;;;;;;21.31;51.97;101745.31;4998763;28;20080;-52
2022/08/13 05:22:29;;;;;;;10.00;6.32;;;;;;;21.40;52.21;101745.19;5003552;28;20119;-53
2022/08/13 05:24:55;;;;;;;9.70;6.38;;;;;;;21.49;52.50;101746.78;5004833;28;20041;-54
2022/08/13 05:27:21;;;;;;;11.27;7.30;;;;;;;21.58;51.69;101749.28;5001165;28;20049;-49
2022/08/13 05:29:47;;;;;;;11.13;6.82;;;;;;;21.59;51.64;101748.38;4988337;28;20124;-52
2022/08/13 05:32:16;;;;;;;9.32;6.80;;;;;;;21.64;52.39;101747.41;5000243;28;20151;-53
2022/08/13 05:34:41;;;;;;;13.48;6.60;;;;;;;21.82;50.64;101747.06;4987526;28;20127;-50
2022/08/13 05:37:07;;;;;;;10.70;7.07;;;;;;;21.76;51.87;101749.81;4984718;28;20043;-50
2022/08/13 05:39:36;;;;;;;14.95;6.97;;;;;;;22.01;51.20;101755.56;5003871;28;20462;-53
2022/08/13 05:42:02;;;;;;;9.48;6.40;;;;;;;22.25;51.07;101746.22;4999057;28;20504;-49
2022/08/13 05:44:27;;;;;;;15.02;6.47;;;;;;;22.23;49.97;101743.59;5011470;28;20090;-52
2022/08/13 05:46:53;;;;;;;12.52;6.85;;;;;;;22.19;49.66;101749.88;4992939;28;20090;-53
2022/08/13 05:49:19;;;;;;;9.55;6.63;;;;;;;22.37;48.39;101748.63;5004352;28;20040;-51
2022/08/13 05:51:45;;;;;;;10.73;6.68;;;;;;;22.26;51.17;101755.94;5004755;28;20707;-50
2022/08/13 05:54:11;;;;;;;11.48;6.40;;;;;;;21.99;48.64;101759.16;5003563;28;20123;-52
2022/08/13 05:56:38;;;;;;;8.65;6.45;;;;;;;22.35;48.92;101755.75;4976988;28;20049;-53
2022/08/13 05:59:05;;;;;;;8.23;6.20;;;;;;;22.29;50.86;101753.22;5001322;28;20088;-52
2022/08/13 06:04:19;;;;;;;10.88;5.90;;;;;;;22.45;48.89;101759.06;4996046;28;20139;-51
2022/08/13 06:06:47;;;;;;;10.50;5.68;;;;;;;22.45;47.67;101748.44;4998721;28;20051;-49
2022/08/13 06:09:16;;;;;;;9.18;4.97;;;;;;;22.75;47.91;101746.94;5002324;28;20483;-51
2022/08/13 06:11:51;;;;;;;7.60;5.50;;;;;;;22.77;49.70;101745.97;4992363;28;20041;-48
2022/08/13 06:14:25;;;;;;;7.57;5.25;;;;;;;22.89;46.42;101747.47;5001953;28;20506;-52
2022/08/13 06:16:51;;;;;;;7.15;4.57;;;;;;;23.36;46.73;101751.63;5004226;28;20480;-49
2022/08/13 06:19:21;;;;;;;9.65;4.78;;;;;;;23.89;43.51;101744.91;4987922;28;20491;-53
2022/08/13 06:22:01;;;;;;;8.43;4.65;;;;;;;25.22;40.51;101745.28;4995527;28;20033;-52
2022/08/13 06:24:27;;;;;;;15.98;4.40;;;;;;;26.52;37.85;101747.72;5007504;28;20037;-52
2022/08/13 06:26:59;;;;;;;10.30;4.15;;;;;;;27.56;35.59;101747.03;4976115;28;20986;-54
2022/08/13 06:29:40;;;;;;;9.13;4.20;;;;;;;27.89;33.88;101744.66;4996158;28;20076;-49
2022/08/13 06:32:08;;;;;;;9.43;3.80;;;;;;;28.71;34.08;101751.56;5002826;28;20115;-52
2022/08/13 06:34:36;;;;;;;8.88;3.42;;;;;;;30.04;32.06;101741.22;4998988;28;20045;-52
2022/08/13 06:37:05;;;;;;;6.97;3.63;;;;;;;29.73;33.49;101746.44;5014690;28;20128;-50
2022/08/13 06:39:32;;;;;;;9.43;3.70;;;;;;;30.35;30.71;101737.72;4996819;28;20045;-52
2022/08/13 06:42:02;;;;;;;13.02;3.47;;;;;;;30.14;31.74;101753.19;4987504;28;21530;-52
2022/08/13 06:44:33;;;;;;;6.00;3.05;;;;;;;29.90;32.15;101753.59;4993749;28;20136;-52
2022/08/13 06:47:04;;;;;;;7.50;3.60;;;;;;;29.64;30.33;101755.84;5006546;28;20322;-50
2022/08/13 06:49:34;;;;;;;9.68;3.50;;;;;;;30.00;31.17;101750.41;5005159;28;20040;-52
2022/08/13 06:52:00;;;;;;;8.13;3.65;;;;;;;29.93;30.38;101749.00;4985171;28;20044;-51
2022/08/13 06:54:27;;;;;;;8.68;3.42;;;;;;;29.97;30.61;101750.56;5004946;28;20037;-50
2022/08/13 06:56:54;;;;;;;6.38;3.35;;;;;;;30.57;29.59;101745.47;4998285;28;20708;-49
2022/08/13 06:59:23;;;;;;;9.38;3.50;;;;;;;30.98;29.44;101745.81;5004100;28;20172;-52
2022/08/13 07:01:53;;;;;;;9.00;3.40;;;;;;;29.91;29.74;101747.28;4996920;28;20102;-51
2022/08/13 07:04:20;;;;;;;6.65;3.10;;;;;;;29.51;30.07;101740.47;5010053;28;20036;-52
2022/08/13 07:06:49;;;;;;;8.13;3.20;;;;;;;29.54;29.98;101748.34;4998952;28;20264;-51
2022/08/13 07:09:17;;;;;;;8.63;2.97;;;;;;;30.06;30.33;101749.19;5010225;28;20048;-48
2022/08/13 07:11:45;;;;;;;10.57;3.00;;;;;;;30.21;30.14;101746.53;4989023;28;20104;-48
2022/08/13 07:14:22;;;;;;;5.57;2.78;;;;;;;30.09;28.84;101740.94;4978977;28;20039;-49
2022/08/13 07:16:47;;;;;;;9.55;3.15;;;;;;;30.39;28.80;101751.84;4986943;28;21791;-47
2022/08/13 07:19:13;;;;;;;5.60;2.90;;;;;;;30.34;27.78;101743.16;5006606;28;20432;-53
2022/08/13 07:21:40;;;;;;;4.13;2.80;;;;;;;30.30;29.64;101747.84;5001556;28;20090;-50
2022/08/13 07:24:08;;;;;;;5.00;2.90;;;;;;;30.95;28.24;101744.16;4997399;28;20103;-51
2022/08/13 07:26:35;;;;;;;5.80;2.70;;;;;;;31.36;27.72;101748.94;5004479;28;20103;-51
2022/08/13 07:29:04;;;;;;;7.32;2.90;;;;;;;30.89;27.46;101740.94;5008947;28;20040;-53
2022/08/13 07:31:31;;;;;;;6.50;2.90;;;;;;;31.54;27.60;101745.16;4996858;28;20067;-50
2022/08/13 07:34:04;;;;;;;8.63;2.90;;;;;;;31.53;26.56;101748.84;5000956;28;20432;-51
2022/08/13 07:36:33;;;;;;;9.07;3.15;;;;;;;30.24;27.47;101740.13;5009028;28;20605;-51
2022/08/13 07:39:02;;;;;;;7.00;3.08;;;;;;;31.09;28.13;101748.78;5008717;28;20110;-52
2022/08/13 07:41:28;;;;;;;5.72;3.17;;;;;;;29.86;28.91;101750.22;5012150;28;20029;-50
2022/08/13 07:43:53;;;;;;;3.80;3.20;;;;;;;29.91;29.17;101753.56;4998924;28;20341;-52
2022/08/13 07:46:24;;;;;;;6.43;3.30;;;;;;;30.19;28.73;101753.81;4997995;28;20457;-50
2022/08/13 07:48:51;;;;;;;10.50;3.50;;;;;;;30.23;29.43;101750.00;4994298;28;20049;-50
2022/08/13 07:51:23;;;;;;;8.57;3.20;;;;;;;30.04;29.52;101749.28;5008307;28;20052;-50
2022/08/13 07:54:13;;;;;;;7.22;3.40;;;;;;;29.97;29.35;101758.63;4998579;28;20045;-48
2022/08/13 07:56:47;;;;;;;11.00;3.38;;;;;;;30.55;28.94;101759.03;5002471;28;20458;-48
2022/08/13 07:59:15;;;;;;;4.25;3.22;;;;;;;30.73;29.58;101756.25;5011596;28;20048;-52
2022/08/13 08:01:49;;;;;;;9.02;3.20;;;;;;;30.50;29.07;101760.22;4990791;28;20473;-50
2022/08/13 08:04:16;;;;;;;9.10;3.03;;;;;;;31.03;29.76;101766.13;5000426;28;20114;-48
2022/08/13 08:06:47;;;;;;;10.18;3.65;;;;;;;30.40;29.14;101761.66;5004236;28;20041;-47
2022/08/13 08:09:18;;;;;;;8.30;3.17;;;;;;;30.83;30.00;101760.16;4995445;28;20068;-48
2022/08/13 08:14:30;;;;;;;9.20;2.85;;;;;;;31.72;27.33;101760.22;4988364;28;20048;-55
2022/08/13 08:16:59;;;;;;;8.35;3.28;;;;;;;31.08;28.45;101762.31;5005249;28;20043;-58
2022/08/13 08:19:27;;;;;;;5.28;3.00;;;;;;;30.59;29.00;101760.59;5001957;28;20036;-56
2022/08/13 08:21:56;;;;;;;6.60;2.90;;;;;;;30.29;29.46;101764.06;4995549;28;20052;-54
2022/08/13 08:24:22;;;;;;;4.63;2.92;;;;;;;30.23;29.68;101765.28;4988850;28;20044;-54
2022/08/13 08:26:49;;;;;;;6.28;3.03;;;;;;;30.72;30.03;101760.75;5010180;28;20575;-53
2022/08/13 08:29:16;;;;;;;7.15;2.85;;;;;;;30.64;30.39;101755.81;4982217;28;20040;-56
2022/08/13 08:31:42;;;;;;;4.45;2.40;;;;;;;31.28;30.22;101765.59;4977393;28;20055;-54
2022/08/13 08:34:08;;;;;;;5.70;2.58;;;;;;;31.07;29.56;101761.44;5000782;28;20086;-59
2022/08/13 08:36:40;;;;;;;5.70;2.72;;;;;;;30.76;29.92;101769.53;4993798;28;20202;-55
2022/08/13 08:44:42;;;;;;;5.63;2.80;;;;;;;30.22;31.12;101768.91;4990805;28;20599;-57
2022/08/13 08:47:07;;;;;;;6.40;2.70;;;;;;;30.50;30.05;101769.16;4938362;28;20506;-56
2022/08/13 08:49:33;;;;;;;4.32;2.60;;;;;;;30.55;30.27;101768.94;4984020;28;20136;-57
2022/08/13 08:52:01;;;;;;;8.95;2.70;;;;;;;30.60;30.01;101769.53;4983361;28;20046;-57
2022/08/13 08:54:29;;;;;;;8.05;2.85;;;;;;;30.47;30.90;101758.56;4967645;28;20043;-55
2022/08/13 08:56:56;;;;;;;7.57;3.10;;;;;;;30.50;30.00;101763.78;4964709;28;20341;-55
2022/08/13 08:59:30;;;;;;;5.47;3.00;;;;;;;30.98;31.45;101764.66;4984777;28;21038;-56
2022/08/13 09:01:56;;;;;;;6.47;2.67;;;;;;;31.55;30.68;101771.16;4991803;28;20049;-56
2022/08/13 09:04:28;;;;;;;8.80;2.80;;;;;;;30.44;29.81;101765.91;4986774;28;20033;-56
2022/08/13 09:06:56;;;;;;;6.93;2.90;;;;;;;30.95;30.57;101762.13;4969944;28;20520;-55
2022/08/13 09:09:22;;;;;;;6.45;2.83;;;;;;;31.10;32.23;101763.13;4977791;28;20695;-55
2022/08/13 09:11:55;;;;;;;6.18;2.90;;;;;;;31.23;30.84;101764.97;4987342;28;20044;-56
2022/08/13 09:14:26;;;;;;;6.30;2.90;;;;;;;31.17;29.55;101761.81;4984597;28;20049;-52
2022/08/13 09:16:55;;;;;;;9.65;2.90;;;;;;;31.27;30.33;101754.91;4966873;28;20041;-54
2022/08/13 09:19:25;;;;;;;6.53;2.80;;;;;;;31.26;28.48;101761.25;4956523;28;20389;-55
2022/08/13 09:21:51;;;;;;;7.45;2.55;;;;;;;31.25;29.59;101754.13;4987594;28;20488;-54
2022/08/13 09:24:24;;;;;;;4.32;2.78;;;;;;;31.14;29.43;101760.16;4959197;28;20512;-54
2022/08/13 09:26:51;;;;;;;10.57;2.90;;;;;;;31.27;28.25;101753.06;4964402;28;20063;-57
2022/08/13 09:29:24;;;;;;;9.93;2.63;;;;;;;31.15;28.13;101764.56;4982213;28;20041;-55
2022/08/13 09:31:50;;;;;;;4.53;2.50;;;;;;;30.97;27.71;101754.84;4968292;28;20045;-55
2022/08/13 09:34:17;;;;;;;5.18;2.45;;;;;;;30.88;29.63;101756.22;4979695;28;20775;-54
2022/08/13 09:36:44;;;;;;;7.03;2.90;;;;;;;31.22;29.20;101752.50;4979881;28;20049;-55
2022/08/13 09:39:29;;;;;;;12.18;2.70;;;;;;;31.15;28.67;101755.63;4967140;28;20042;-55
2022/08/13 09:41:56;;;;;;;8.10;2.50;;;;;;;31.08;28.95;101752.41;4964524;28;20052;-55
2022/08/13 09:44:25;;;;;;;5.22;2.42;;;;;;;31.79;30.08;101753.50;4972522;28;20037;-55
2022/08/13 09:46:51;;;;;;;5.75;2.70;;;;;;;31.72;30.80;101754.84;4968775;28;20504;-53
2022/08/13 09:49:16;;;;;;;5.07;2.90;;;;;;;31.30;29.15;101749.31;4982431;28;20127;-52
2022/08/13 09:51:45;;;;;;;9.00;2.60;;;;;;;31.80;28.81;101749.84;4968406;28;20083;-51
2022/08/13 09:54:11;;;;;;;20.35;3.60;;;;;;;31.37;29.03;101742.59;4965012;28;20049;-53
2022/08/13 09:56:39;;;;;;;7.30;2.70;;;;;;;31.16;29.36;101744.78;4977805;28;20109;-54
2022/08/13 09:59:10;;;;;;;5.35;2.60;;;;;;;31.61;28.02;101737.59;4978161;28;20710;-54
2022/08/13 10:01:38;;;;;;;10.80;2.58;;;;;;;31.39;28.14;101749.66;4992764;28;20396;-52
2022/08/13 10:04:04;;;;;;;6.10;2.65;;;;;;;31.60;27.47;101742.13;4967953;28;20045;-54
2022/08/13 10:06:34;;;;;;;7.72;2.60;;;;;;;31.34;28.21;101746.38;4985695;28;20277;-55
2022/08/13 10:09:00;;;;;;;7.15;2.58;;;;;;;31.35;28.43;101733.78;4963739;28;20582;-54
2022/08/13 10:11:28;;;;;;;5.15;2.55;;;;;;;31.17;27.46;101733.00;4986346;28;20046;-54
2022/08/13 10:13:54;;;;;;;5.45;2.80;;;;;;;31.37;28.10;101731.81;4980210;28;21292;-54
2022/08/13 10:16:22;;;;;;;7.60;2.50;;;;;;;31.78;28.13;101735.59;4999508;28;20037;-53
2022/08/13 10:18:47;;;;;;;6.53;2.60;;;;;;;31.58;27.27;101726.97;4945500;28;20053;-53
2022/08/13 10:21:14;;;;;;;9.45;2.60;;;;;;;31.58;27.33;101735.94;4983739;28;20033;-52
2022/08/13 10:23:41;;;;;;;4.65;2.40;;;;;;;31.58;28.45;101726.97;4969859;28;20052;-56
2022/08/13 10:26:07;;;;;;;6.93;2.50;;;;;;;31.77;28.21;101733.00;4981351;28;20260;-53
2022/08/13 10:28:36;;;;;;;7.40;2.55;;;;;;;31.91;26.82;101721.34;4968744;28;20103;-52
2022/08/13 10:31:10;;;;;;;15.13;2.90;;;;;;;31.64;27.08;101729.34;4985843;28;20059;-54
2022/08/13 10:33:38;;;;;;;4.25;2.25;;;;;;;31.93;27.34;101714.91;4994571;28;20090;-54
2022/08/13 10:36:07;;;;;;;11.25;2.60;;;;;;;31.98;27.12;101728.97;4986915;28;20046;-55
2022/08/13 10:38:33;;;;;;;7.35;2.55;;;;;;;31.37;26.72;101727.31;4982693;28;20057;-52
2022/08/13 10:41:06;;;;;;;6.60;2.63;;;;;;;31.69;27.75;101720.00;4992772;28;20776;-56
2022/08/13 10:43:38;;;;;;;4.22;2.20;;;;;;;31.74;27.44;101725.09;4976987;28;20467;-56
2022/08/13 10:46:05;;;;;;;6.32;2.40;;;;;;;31.71;27.69;101723.47;4987136;28;20033;-53
2022/08/13 10:48:30;;;;;;;5.55;2.50;;;;;;;31.77;26.93;101712.31;4958500;28;20063;-55
2022/08/13 10:51:00;;;;;;;8.32;2.30;;;;;;;32.29;26.15;101710.88;4976238;28;20491;-53
2022/08/13 10:56:13;;;;;;;5.78;2.33;;;;;;;32.68;26.01;101708.31;4966329;28;20156;-55
2022/08/13 10:58:59;;;;;;;8.02;2.20;;;;;;;32.27;25.40;101710.94;4987530;28;20084;-56
2022/08/13 11:01:26;;;;;;;6.53;2.40;;;;;;;32.17;25.60;101705.28;4969256;28;20133;-58
2022/08/13 11:04:01;;;;;;;4.03;2.20;;;;;;;32.26;25.68;101698.47;4968757;28;21005;-54
2022/08/13 11:06:29;;;;;;;7.80;2.33;;;;;;;32.17;25.75;101694.50;4960196;28;20029;-57
2022/08/13 11:09:14;;;;;;;5.20;2.38;;;;;;;32.70;25.15;101694.69;4975276;28;20392;-55
2022/08/13 11:11:40;;;;;;;4.20;1.98;;;;;;;33.47;24.04;101700.25;4989217;28;20385;-54
2022/08/13 11:14:07;;;;;;;4.53;1.98;;;;;;;32.45;23.79;101696.28;4982481;28;20064;-57
2022/08/13 11:19:14;;;;;;;5.30;2.30;;;;;;;32.16;24.30;101700.00;4973276;28;20050;-54
2022/08/13 11:21:41;;;;;;;5.32;1.80;;;;;;;32.68;22.75;101694.81;4960016;28;20531;-55
2022/08/13 11:24:07;;;;;;;4.38;1.90;;;;;;;32.89;23.50;101690.66;4977590;28;20025;-56
2022/08/13 11:26:38;;;;;;;3.63;1.80;;;;;;;32.71;23.41;101682.91;4953015;28;20606;-57
2022/08/13 11:29:07;;;;;;;4.65;2.30;;;;;;;32.82;23.25;101683.94;4986049;28;20564;-54
2022/08/13 11:31:34;;;;;;;4.43;1.75;;;;;;;33.07;23.05;101682.28;4984717;28;20380;-56
2022/08/13 11:34:00;;;;;;;3.58;1.90;;;;;;;32.75;22.22;101679.94;4985136;28;20125;-56
2022/08/13 11:36:25;;;;;;;4.30;1.80;;;;;;;32.51;22.06;101674.28;4985177;28;20043;-52
2022/08/13 11:38:51;;;;;;;4.43;1.80;;;;;;;32.99;21.89;101670.19;4973107;28;20459;-54
2022/08/13 11:41:16;;;;;;;3.40;1.80;;;;;;;33.13;23.34;101671.06;4991903;28;20033;-55
2022/08/13 11:43:42;;;;;;;4.18;1.80;;;;;;;33.36;23.17;101678.50;4984093;28;20271;-56
2022/08/13 11:46:08;;;;;;;3.80;1.60;;;;;;;33.53;21.32;101666.50;4980993;28;20067;-55
2022/08/13 11:48:39;;;;;;;2.47;1.60;;;;;;;32.90;21.94;101669.91;4981944;28;20061;-58
2022/08/13 11:51:04;;;;;;;4.07;1.60;;;;;;;32.64;21.98;101663.53;4976669;28;20041;-54
2022/08/13 11:53:30;;;;;;;2.70;1.60;;;;;;;32.94;22.61;101672.31;4959286;28;20045;-58